createdAt,value
2018-04-17T00:00:23.386Z,0.00
2018-04-17T00:01:23.308Z,0.00
2018-04-17T00:02:23.257Z,0.00
2018-04-17T00:03:23.211Z,0.00
2018-04-17T00:04:23.163Z,0.00
2018-04-17T00:05:23.137Z,0.00
2018-04-17T00:06:23.067Z,0.00
2018-04-17T00:07:23.018Z,0.00
2018-04-17T00:08:22.971Z,0.00
2018-04-17T00:09:22.920Z,0.00
2018-04-17T00:10:22.905Z,0.00
2018-04-17T00:11:22.832Z,0.00
2018-04-17T00:12:22.782Z,0.00
2018-04-17T00:13:22.733Z,0.00
2018-04-17T00:14:22.683Z,0.00
2018-04-17T00:15:22.664Z,0.00
2018-04-17T00:16:22.589Z,0.00
2018-04-17T00:17:22.539Z,0.00
2018-04-17T00:18:22.493Z,0.00
2018-04-17T00:19:22.446Z,0.00
2018-04-17T00:20:22.422Z,0.00
2018-04-17T00:21:22.347Z,0.00
2018-04-17T00:22:22.306Z,0.00
2018-04-17T00:23:22.253Z,0.00
2018-04-17T00:24:22.205Z,0.00
2018-04-17T00:25:22.179Z,0.00
2018-04-17T00:26:22.110Z,0.00
2018-04-17T00:27:22.061Z,0.00
2018-04-17T00:28:22.012Z,0.00
2018-04-17T00:29:21.970Z,0.00
2018-04-17T00:30:21.949Z,0.00
2018-04-17T00:31:21.871Z,0.00
2018-04-17T00:32:21.859Z,0.00
2018-04-17T00:33:21.774Z,0.00
2018-04-17T00:34:21.729Z,0.00
2018-04-17T00:35:21.704Z,0.00
2018-04-17T00:36:21.634Z,0.00
2018-04-17T00:37:21.580Z,0.00
2018-04-17T00:38:21.537Z,0.00
2018-04-17T00:39:21.486Z,0.00
2018-04-17T00:40:21.461Z,0.00
2018-04-17T00:41:21.390Z,0.00
2018-04-17T00:42:21.350Z,0.00
2018-04-17T00:43:21.292Z,0.00
2018-04-17T00:44:21.258Z,0.00
2018-04-17T00:45:21.225Z,0.00
2018-04-17T00:46:21.150Z,0.00
2018-04-17T00:47:21.101Z,0.00
2018-04-17T00:48:21.057Z,0.00
2018-04-17T00:49:21.010Z,0.00
2018-04-17T00:50:20.985Z,0.00
2018-04-17T00:51:20.912Z,0.00
2018-04-17T00:52:20.866Z,0.00
2018-04-17T00:53:20.815Z,0.00
2018-04-17T00:54:20.767Z,0.00
2018-04-17T00:55:20.746Z,0.00
2018-04-17T00:56:20.674Z,0.00
2018-04-17T00:57:20.641Z,0.00
2018-04-17T00:58:20.575Z,0.00
2018-04-17T00:59:20.530Z,0.00
2018-04-17T01:00:20.506Z,0.00
2018-04-17T01:01:20.438Z,0.00
2018-04-17T01:02:20.382Z,0.00
2018-04-17T01:03:20.332Z,0.00
2018-04-17T01:04:20.290Z,0.00
2018-04-17T01:05:20.241Z,0.00
2018-04-17T01:06:20.212Z,0.00
2018-04-17T01:07:20.139Z,0.00
2018-04-17T01:08:20.094Z,0.00
2018-04-17T01:09:20.043Z,0.00
2018-04-17T01:10:19.995Z,0.00
2018-04-17T01:11:19.970Z,0.00
2018-04-17T01:12:19.902Z,0.00
2018-04-17T01:13:19.852Z,0.00
2018-04-17T01:14:19.805Z,0.00
2018-04-17T01:15:19.756Z,0.00
2018-04-17T01:16:19.730Z,0.00
2018-04-17T01:17:19.663Z,0.00
2018-04-17T01:18:19.618Z,0.00
2018-04-17T01:19:19.569Z,0.00
2018-04-17T01:20:19.512Z,0.00
2018-04-17T01:21:19.489Z,0.00
2018-04-17T01:22:19.417Z,0.00
2018-04-17T01:23:19.372Z,0.00
2018-04-17T01:24:19.328Z,0.00
2018-04-17T01:25:19.273Z,0.00
2018-04-17T01:26:19.249Z,0.00
2018-04-17T01:27:19.177Z,0.00
2018-04-17T01:28:19.133Z,0.00
2018-04-17T01:29:19.081Z,0.00
2018-04-17T01:30:19.029Z,0.00
2018-04-17T01:31:19.006Z,0.00
2018-04-17T01:32:18.950Z,0.00
2018-04-17T01:33:18.894Z,0.00
2018-04-17T01:34:18.837Z,0.00
2018-04-17T01:35:18.790Z,0.00
2018-04-17T01:36:18.762Z,0.00
2018-04-17T01:37:18.696Z,0.00
2018-04-17T01:38:18.643Z,0.00
2018-04-17T01:39:18.596Z,0.00
2018-04-17T01:40:18.551Z,0.00
2018-04-17T01:41:18.517Z,0.00
2018-04-17T01:42:18.447Z,0.00
2018-04-17T01:43:18.398Z,0.00
2018-04-17T01:44:18.350Z,0.00
2018-04-17T01:45:18.302Z,0.00
2018-04-17T01:46:18.279Z,0.00
2018-04-17T01:47:18.209Z,0.00
2018-04-17T01:48:18.156Z,0.00
2018-04-17T01:49:18.113Z,0.00
2018-04-17T01:50:18.067Z,0.00
2018-04-17T01:51:18.038Z,0.00
2018-04-17T01:52:17.965Z,0.00
2018-04-17T01:53:17.925Z,0.00
2018-04-17T01:54:17.866Z,0.00
2018-04-17T01:55:17.822Z,0.00
2018-04-17T01:56:17.795Z,0.00
2018-04-17T01:57:17.722Z,0.00
2018-04-17T01:58:17.674Z,0.00
2018-04-17T01:59:17.625Z,0.00
2018-04-17T02:00:17.575Z,0.00
2018-04-17T02:01:17.552Z,0.00
2018-04-17T02:02:17.492Z,0.00
2018-04-17T02:03:17.433Z,0.00
2018-04-17T02:04:17.385Z,0.00
2018-04-17T02:05:17.334Z,0.00
2018-04-17T02:06:17.310Z,0.00
2018-04-17T02:07:17.240Z,0.00
2018-04-17T02:08:17.190Z,0.00
2018-04-17T02:09:17.144Z,0.00
2018-04-17T02:10:17.091Z,0.00
2018-04-17T02:11:17.070Z,0.00
2018-04-17T02:12:17.003Z,0.00
2018-04-17T02:13:16.946Z,0.00
2018-04-17T02:14:16.897Z,0.00
2018-04-17T02:15:16.851Z,0.00
2018-04-17T02:16:16.825Z,0.00
2018-04-17T02:17:16.750Z,0.00
2018-04-17T02:18:16.703Z,0.00
2018-04-17T02:19:16.651Z,0.00
2018-04-17T02:20:16.605Z,0.00
2018-04-17T02:21:16.581Z,0.00
2018-04-17T02:22:16.511Z,0.00
2018-04-17T02:23:16.462Z,0.00
2018-04-17T02:24:16.408Z,0.00
2018-04-17T02:25:16.362Z,0.00
2018-04-17T02:26:16.337Z,0.00
2018-04-17T02:27:16.271Z,0.00
2018-04-17T02:28:16.220Z,0.00
2018-04-17T02:29:16.169Z,0.00
2018-04-17T02:30:16.119Z,0.00
2018-04-17T02:31:16.094Z,0.00
2018-04-17T02:32:16.021Z,0.00
2018-04-17T02:33:15.978Z,0.00
2018-04-17T02:34:15.927Z,0.00
2018-04-17T02:35:15.875Z,0.00
2018-04-17T02:36:15.851Z,0.00
2018-04-17T02:37:15.791Z,0.00
2018-04-17T02:38:15.731Z,0.00
2018-04-17T02:39:15.683Z,0.00
2018-04-17T02:40:15.631Z,0.00
2018-04-17T02:41:15.609Z,0.00
2018-04-17T02:42:15.537Z,0.00
2018-04-17T02:43:15.490Z,0.00
2018-04-17T02:44:15.437Z,0.00
2018-04-17T02:45:15.390Z,0.00
2018-04-17T02:46:15.362Z,0.00
2018-04-17T02:47:15.294Z,0.00
2018-04-17T02:48:15.240Z,0.00
2018-04-17T02:49:15.191Z,0.00
2018-04-17T02:50:15.144Z,0.00
2018-04-17T02:51:15.116Z,0.00
2018-04-17T02:52:15.044Z,0.00
2018-04-17T02:53:14.999Z,0.00
2018-04-17T02:54:14.974Z,0.00
2018-04-17T02:55:14.897Z,0.00
2018-04-17T02:56:14.874Z,0.00
2018-04-17T02:57:14.806Z,0.00
2018-04-17T02:58:14.750Z,0.00
2018-04-17T02:59:14.699Z,0.00
2018-04-17T03:00:14.658Z,0.00
2018-04-17T03:01:14.633Z,0.00
2018-04-17T03:02:14.555Z,0.00
2018-04-17T03:03:14.508Z,0.00
2018-04-17T03:04:14.457Z,0.00
2018-04-17T03:05:14.406Z,0.00
2018-04-17T03:06:14.385Z,0.00
2018-04-17T03:07:14.313Z,0.00
2018-04-17T03:08:14.260Z,0.00
2018-04-17T03:09:14.235Z,0.00
2018-04-17T03:10:14.162Z,0.00
2018-04-17T03:11:14.135Z,0.00
2018-04-17T03:12:14.069Z,0.00
2018-04-17T03:13:14.016Z,0.00
2018-04-17T03:14:13.969Z,0.00
2018-04-17T03:15:13.925Z,0.00
2018-04-17T03:16:13.894Z,0.00
2018-04-17T03:17:13.823Z,0.00
2018-04-17T03:18:13.774Z,0.00
2018-04-17T03:19:13.721Z,0.00
2018-04-17T03:20:13.675Z,0.00
2018-04-17T03:21:13.650Z,0.00
2018-04-17T03:22:13.577Z,0.00
2018-04-17T03:23:13.530Z,0.00
2018-04-17T03:24:13.482Z,0.00
2018-04-17T03:25:13.428Z,0.00
2018-04-17T03:26:13.410Z,0.00
2018-04-17T03:27:13.331Z,0.00
2018-04-17T03:28:13.287Z,0.00
2018-04-17T03:29:20.384Z,0.00
2018-04-17T03:30:13.189Z,0.00
2018-04-17T03:31:13.159Z,0.00
2018-04-17T03:32:13.086Z,0.00
2018-04-17T03:33:13.037Z,0.00
2018-04-17T03:34:12.992Z,0.00
2018-04-17T03:35:12.938Z,0.00
2018-04-17T03:36:12.919Z,0.00
2018-04-17T03:37:12.849Z,0.00
2018-04-17T03:38:12.823Z,0.00
2018-04-17T03:39:12.748Z,0.00
2018-04-17T03:40:12.694Z,0.00
2018-04-17T03:41:12.673Z,0.00
2018-04-17T03:42:12.596Z,0.00
2018-04-17T03:43:12.547Z,0.00
2018-04-17T03:44:12.498Z,0.00
2018-04-17T03:45:12.459Z,0.00
2018-04-17T03:46:12.433Z,0.00
2018-04-17T03:47:12.351Z,0.00
2018-04-17T03:48:12.307Z,0.00
2018-04-17T03:49:12.254Z,0.00
2018-04-17T03:50:12.209Z,0.00
2018-04-17T03:51:12.186Z,0.00
2018-04-17T03:52:12.108Z,0.00
2018-04-17T03:53:12.060Z,0.00
2018-04-17T03:54:12.007Z,0.00
2018-04-17T03:55:11.961Z,4.00
2018-04-17T03:56:11.931Z,4.00
2018-04-17T03:57:11.860Z,4.00
2018-04-17T03:58:11.812Z,4.00
2018-04-17T03:59:11.762Z,4.00
2018-04-17T04:00:11.714Z,8.00
2018-04-17T04:01:11.666Z,4.00
2018-04-17T04:02:11.641Z,8.00
2018-04-17T04:03:11.571Z,8.00
2018-04-17T04:04:11.523Z,8.00
2018-04-17T04:05:11.470Z,8.00
2018-04-17T04:06:11.421Z,12.00
2018-04-17T04:07:11.398Z,12.00
2018-04-17T04:08:11.327Z,16.00
2018-04-17T04:09:11.278Z,16.00
2018-04-17T04:10:11.230Z,24.00
2018-04-17T04:11:11.175Z,24.00
2018-04-17T04:12:11.147Z,28.00
2018-04-17T04:13:11.076Z,32.00
2018-04-17T04:14:11.027Z,40.00
2018-04-17T04:15:10.980Z,44.00
2018-04-17T04:16:10.971Z,48.00
2018-04-17T04:17:10.902Z,56.00
2018-04-17T04:18:10.832Z,64.00
2018-04-17T04:19:10.793Z,72.00
2018-04-17T04:20:10.734Z,76.00
2018-04-17T04:21:10.687Z,88.00
2018-04-17T04:22:10.660Z,96.00
2018-04-17T04:23:10.587Z,108.00
2018-04-17T04:24:10.542Z,116.00
2018-04-17T04:25:10.487Z,128.00
2018-04-17T04:26:10.443Z,144.00
2018-04-17T04:27:10.409Z,156.00
2018-04-17T04:28:10.338Z,168.00
2018-04-17T04:29:10.293Z,184.00
2018-04-17T04:30:10.245Z,200.00
2018-04-17T04:31:10.194Z,216.00
2018-04-17T04:32:10.165Z,232.00
2018-04-17T04:33:10.098Z,252.00
2018-04-17T04:34:10.083Z,268.00
2018-04-17T04:35:09.999Z,284.00
2018-04-17T04:36:09.949Z,304.00
2018-04-17T04:37:09.930Z,328.00
2018-04-17T04:38:09.850Z,348.00
2018-04-17T04:39:09.801Z,372.00
2018-04-17T04:40:09.750Z,396.00
2018-04-17T04:41:09.704Z,416.00
2018-04-17T04:42:09.677Z,440.00
2018-04-17T04:43:09.602Z,464.00
2018-04-17T04:44:09.556Z,492.00
2018-04-17T04:45:09.511Z,516.00
2018-04-17T04:46:09.461Z,540.00
2018-04-17T04:47:09.434Z,568.00
2018-04-17T04:48:09.362Z,596.00
2018-04-17T04:49:09.309Z,624.00
2018-04-17T04:50:09.261Z,652.00
2018-04-17T04:51:09.216Z,680.00
2018-04-17T04:52:09.215Z,712.00
2018-04-17T04:53:09.113Z,740.00
2018-04-17T04:54:09.066Z,772.00
2018-04-17T04:55:09.013Z,804.00
2018-04-17T04:56:08.968Z,832.00
2018-04-17T04:57:08.949Z,864.00
2018-04-17T04:58:08.871Z,896.00
2018-04-17T04:59:08.818Z,928.00
2018-04-17T05:00:08.774Z,964.00
2018-04-17T05:01:08.724Z,996.00
2018-04-17T05:02:08.673Z,1028.00
2018-04-17T05:03:08.647Z,1060.00
2018-04-17T05:04:08.576Z,1088.00
2018-04-17T05:05:08.528Z,1124.00
2018-04-17T05:06:08.482Z,1160.00
2018-04-17T05:07:08.427Z,1196.00
2018-04-17T05:08:08.408Z,1236.00
2018-04-17T05:09:08.333Z,1264.00
2018-04-17T05:10:08.280Z,1300.00
2018-04-17T05:11:08.232Z,1328.00
2018-04-17T05:12:08.212Z,1364.00
2018-04-17T05:13:08.166Z,1396.00
2018-04-17T05:14:08.088Z,1428.00
2018-04-17T05:15:08.038Z,1464.00
2018-04-17T05:16:07.990Z,1496.00
2018-04-17T05:17:07.939Z,1528.00
2018-04-17T05:18:07.917Z,1560.00
2018-04-17T05:19:07.841Z,1584.00
2018-04-17T05:20:07.796Z,1620.00
2018-04-17T05:21:07.750Z,1652.00
2018-04-17T05:22:07.698Z,1680.00
2018-04-17T05:23:07.670Z,1708.00
2018-04-17T05:24:07.600Z,1736.00
2018-04-17T05:25:07.549Z,1768.00
2018-04-17T05:26:07.501Z,1816.00
2018-04-17T05:27:07.456Z,1876.00
2018-04-17T05:28:07.426Z,1932.00
2018-04-17T05:29:07.355Z,1980.00
2018-04-17T05:30:07.305Z,2016.00
2018-04-17T05:31:07.266Z,1896.00
2018-04-17T05:32:07.207Z,1948.00
2018-04-17T05:33:07.182Z,2000.00
2018-04-17T05:34:07.116Z,2056.00
2018-04-17T05:35:07.084Z,2128.00
2018-04-17T05:36:07.012Z,2220.00
2018-04-17T05:37:06.963Z,2308.00
2018-04-17T05:38:06.938Z,2384.00
2018-04-17T05:39:06.867Z,2436.00
2018-04-17T05:40:06.857Z,2532.00
2018-04-17T05:41:06.772Z,2672.00
2018-04-17T05:42:06.722Z,2816.00
2018-04-17T05:43:06.698Z,2948.00
2018-04-17T05:44:06.629Z,3040.00
2018-04-17T05:45:06.578Z,3124.00
2018-04-17T05:46:06.528Z,3168.00
2018-04-17T05:47:06.483Z,3288.00
2018-04-17T05:48:06.457Z,3412.00
2018-04-17T05:49:06.395Z,3484.00
2018-04-17T05:50:06.337Z,3536.00
2018-04-17T05:51:06.293Z,3580.00
2018-04-17T05:52:06.268Z,3608.00
2018-04-17T05:53:06.216Z,3668.00
2018-04-17T05:54:06.152Z,3700.00
2018-04-17T05:55:06.097Z,3732.00
2018-04-17T05:56:06.050Z,3712.00
2018-04-17T05:57:06.003Z,3672.00
2018-04-17T05:58:05.976Z,3764.00
2018-04-17T05:59:05.905Z,3756.00
2018-04-17T06:00:05.857Z,3812.00
2018-04-17T06:01:05.814Z,3904.00
2018-04-17T06:02:05.761Z,3972.00
2018-04-17T06:03:05.736Z,3992.00
2018-04-17T06:04:05.671Z,4012.00
2018-04-17T06:05:05.625Z,4044.00
2018-04-17T06:06:05.571Z,4080.00
2018-04-17T06:07:05.526Z,4120.00
2018-04-17T06:08:05.505Z,4160.00
2018-04-17T06:09:05.432Z,4168.00
2018-04-17T06:10:05.415Z,4200.00
2018-04-17T06:11:05.336Z,4220.00
2018-04-17T06:12:05.291Z,4220.00
2018-04-17T06:13:06.507Z,4272.00
2018-04-17T06:14:05.203Z,4296.00
2018-04-17T06:15:05.149Z,4288.00
2018-04-17T06:16:05.103Z,4288.00
2018-04-17T06:17:05.052Z,4304.00
2018-04-17T06:18:05.029Z,4332.00
2018-04-17T06:19:04.961Z,4356.00
2018-04-17T06:20:04.912Z,4400.00
2018-04-17T06:21:04.868Z,4440.00
2018-04-17T06:22:04.821Z,4464.00
2018-04-17T06:23:04.797Z,4448.00
2018-04-17T06:24:04.743Z,4432.00
2018-04-17T06:25:04.678Z,4372.00
2018-04-17T06:26:04.652Z,4432.00
2018-04-17T06:27:04.588Z,4428.00
2018-04-17T06:28:04.567Z,4432.00
2018-04-17T06:29:04.491Z,4440.00
2018-04-17T06:30:04.448Z,4472.00
2018-04-17T06:31:04.402Z,4524.00
2018-04-17T06:32:04.355Z,4548.00
2018-04-17T06:33:04.333Z,4608.00
2018-04-17T06:34:04.261Z,4608.00
2018-04-17T06:35:04.236Z,4608.00
2018-04-17T06:36:04.166Z,4640.00
2018-04-17T06:37:04.125Z,4688.00
2018-04-17T06:38:04.096Z,4688.00
2018-04-17T06:39:04.030Z,4676.00
2018-04-17T06:40:03.985Z,4716.00
2018-04-17T06:41:03.937Z,4704.00
2018-04-17T06:42:03.919Z,4724.00
2018-04-17T06:43:03.866Z,4696.00
2018-04-17T06:44:03.800Z,4772.00
2018-04-17T06:45:03.761Z,4780.00
2018-04-17T06:46:03.708Z,4776.00
2018-04-17T06:47:03.659Z,4776.00
2018-04-17T06:48:03.639Z,4784.00
2018-04-17T06:49:03.567Z,4808.00
2018-04-17T06:50:03.527Z,4788.00
2018-04-17T06:51:03.475Z,4800.00
2018-04-17T06:52:03.426Z,4788.00
2018-04-17T06:53:03.408Z,4804.00
2018-04-17T06:54:03.340Z,4812.00
2018-04-17T06:55:03.290Z,4808.00
2018-04-17T06:56:03.251Z,4808.00
2018-04-17T06:57:03.208Z,4800.00
2018-04-17T06:58:03.213Z,4776.00
2018-04-17T06:59:03.112Z,4788.00
2018-04-17T07:00:03.068Z,4788.00
2018-04-17T07:01:03.016Z,4828.00
2018-04-17T07:02:02.971Z,4832.00
2018-04-17T07:03:02.973Z,4832.00
2018-04-17T07:04:02.885Z,4812.00
2018-04-17T07:05:02.834Z,4800.00
2018-04-17T07:06:02.806Z,4776.00
2018-04-17T07:07:02.744Z,4780.00
2018-04-17T07:08:02.723Z,4740.00
2018-04-17T07:09:02.651Z,4768.00
2018-04-17T07:10:02.608Z,4808.00
2018-04-17T07:11:02.557Z,4840.00
2018-04-17T07:12:02.517Z,4840.00
2018-04-17T07:13:02.493Z,4848.00
2018-04-17T07:14:02.424Z,4824.00
2018-04-17T07:15:02.387Z,4796.00
2018-04-17T07:16:02.334Z,4796.00
2018-04-17T07:17:02.330Z,4796.00
2018-04-17T07:18:02.269Z,4824.00
2018-04-17T07:19:02.198Z,4808.00
2018-04-17T07:20:02.152Z,4796.00
2018-04-17T07:21:02.107Z,4812.00
2018-04-17T07:22:02.063Z,4788.00
2018-04-17T07:23:02.037Z,4784.00
2018-04-17T07:24:01.970Z,4768.00
2018-04-17T07:25:01.923Z,4740.00
2018-04-17T07:26:01.882Z,4720.00
2018-04-17T07:27:01.836Z,4668.00
2018-04-17T07:28:01.814Z,4592.00
2018-04-17T07:29:01.752Z,4620.00
2018-04-17T07:30:01.695Z,4496.00
2018-04-17T07:31:01.651Z,4532.00
2018-04-17T07:32:01.610Z,4608.00
2018-04-17T07:33:01.594Z,4608.00
2018-04-17T07:34:01.517Z,4564.00
2018-04-17T07:35:01.469Z,4556.00
2018-04-17T07:36:01.428Z,4540.00
2018-04-17T07:37:01.383Z,4552.00
2018-04-17T07:38:01.365Z,4532.00
2018-04-17T07:39:01.291Z,4532.00
2018-04-17T07:40:01.243Z,4524.00
2018-04-17T07:41:01.201Z,4528.00
2018-04-17T07:42:01.154Z,4504.00
2018-04-17T07:43:01.129Z,4504.00
2018-04-17T07:44:01.062Z,4484.00
2018-04-17T07:45:01.050Z,4484.00
2018-04-17T07:46:00.973Z,4472.00
2018-04-17T07:47:00.927Z,4460.00
2018-04-17T07:48:00.925Z,4476.00
2018-04-17T07:49:00.836Z,4416.00
2018-04-17T07:50:00.792Z,4424.00
2018-04-17T07:51:00.742Z,4436.00
2018-04-17T07:52:00.702Z,4440.00
2018-04-17T07:53:00.651Z,4436.00
2018-04-17T07:54:00.633Z,4396.00
2018-04-17T07:55:00.562Z,4376.00
2018-04-17T07:56:00.519Z,4328.00
2018-04-17T07:57:00.475Z,4308.00
2018-04-17T07:58:00.426Z,4292.00
2018-04-17T07:59:00.409Z,4272.00
2018-04-17T08:00:00.337Z,4240.00
2018-04-17T08:01:00.297Z,4188.00
2018-04-17T08:02:00.246Z,4152.00
2018-04-17T08:03:00.205Z,4104.00
2018-04-17T08:04:00.187Z,4060.00
2018-04-17T08:05:00.120Z,4036.00
2018-04-17T08:06:00.066Z,4020.00
2018-04-17T08:07:00.021Z,4004.00
2018-04-17T08:07:59.975Z,3960.00
2018-04-17T08:08:59.954Z,3924.00
2018-04-17T08:09:59.886Z,3864.00
2018-04-17T08:10:59.837Z,3868.00
2018-04-17T08:11:59.800Z,3876.00
2018-04-17T08:12:59.750Z,3868.00
2018-04-17T08:13:59.741Z,3820.00
2018-04-17T08:14:59.656Z,3776.00
2018-04-17T08:15:59.617Z,3728.00
2018-04-17T08:16:59.567Z,3684.00
2018-04-17T08:17:59.531Z,3684.00
2018-04-17T08:18:59.504Z,3688.00
2018-04-17T08:19:59.432Z,3680.00
2018-04-17T08:20:59.390Z,3664.00
2018-04-17T08:21:59.346Z,3616.00
2018-04-17T08:22:59.304Z,3576.00
2018-04-17T08:23:59.278Z,3552.00
2018-04-17T08:24:59.211Z,3540.00
2018-04-17T08:25:59.169Z,3532.00
2018-04-17T08:26:59.127Z,3560.00
2018-04-17T08:27:59.082Z,3568.00
2018-04-17T08:28:59.053Z,3568.00
2018-04-17T08:29:58.989Z,3568.00
2018-04-17T08:30:58.945Z,3596.00
2018-04-17T08:31:58.901Z,3624.00
2018-04-17T08:32:58.858Z,3656.00
2018-04-17T08:33:58.834Z,3684.00
2018-04-17T08:34:58.768Z,3716.00
2018-04-17T08:35:58.722Z,3760.00
2018-04-17T08:36:58.704Z,3824.00
2018-04-17T08:37:58.637Z,3868.00
2018-04-17T08:38:58.610Z,3896.00
2018-04-17T08:39:58.542Z,3876.00
2018-04-17T08:40:58.497Z,3816.00
2018-04-17T08:41:58.454Z,3740.00
2018-04-17T08:42:58.405Z,3700.00
2018-04-17T08:43:58.387Z,3652.00
2018-04-17T08:44:58.320Z,3568.00
2018-04-17T08:45:58.275Z,3440.00
2018-04-17T08:46:58.228Z,3396.00
2018-04-17T08:47:58.185Z,3200.00
2018-04-17T08:48:58.197Z,3264.00
2018-04-17T08:49:58.096Z,3336.00
2018-04-17T08:50:58.049Z,3128.00
2018-04-17T08:51:58.004Z,3068.00
2018-04-17T08:52:57.968Z,3396.00
2018-04-17T08:53:57.942Z,3460.00
2018-04-17T08:54:57.874Z,3452.00
2018-04-17T08:55:57.829Z,3452.00
2018-04-17T08:56:57.785Z,3452.00
2018-04-17T08:57:57.740Z,3424.00
2018-04-17T08:58:57.723Z,3396.00
2018-04-17T08:59:57.652Z,3360.00
2018-04-17T09:00:57.608Z,3356.00
2018-04-17T09:01:57.563Z,3344.00
2018-04-17T09:02:57.518Z,3320.00
2018-04-17T09:03:57.496Z,3296.00
2018-04-17T09:04:57.432Z,3296.00
2018-04-17T09:05:57.385Z,3276.00
2018-04-17T09:06:57.341Z,3232.00
2018-04-17T09:07:57.302Z,3236.00
2018-04-17T09:08:57.274Z,3220.00
2018-04-17T09:09:57.206Z,3200.00
2018-04-17T09:10:57.167Z,3180.00
2018-04-17T09:11:57.131Z,3188.00
2018-04-17T09:12:57.076Z,3192.00
2018-04-17T09:13:57.055Z,3236.00
2018-04-17T09:14:56.985Z,3264.00
2018-04-17T09:15:56.943Z,3276.00
2018-04-17T09:16:56.899Z,3280.00
2018-04-17T09:17:56.853Z,3276.00
2018-04-17T09:18:56.836Z,3256.00
2018-04-17T09:19:56.765Z,3244.00
2018-04-17T09:20:56.752Z,3256.00
2018-04-17T09:21:56.678Z,3292.00
2018-04-17T09:22:56.635Z,3300.00
2018-04-17T09:23:56.670Z,3340.00
2018-04-17T09:24:56.546Z,3384.00
2018-04-17T09:25:56.500Z,3392.00
2018-04-17T09:26:56.459Z,3400.00
2018-04-17T09:27:56.414Z,3408.00
2018-04-17T09:28:56.390Z,3380.00
2018-04-17T09:29:56.329Z,3340.00
2018-04-17T09:30:56.279Z,3432.00
2018-04-17T09:31:56.242Z,3468.00
2018-04-17T09:32:56.194Z,3492.00
2018-04-17T09:33:56.171Z,3460.00
2018-04-17T09:34:56.103Z,3536.00
2018-04-17T09:35:56.095Z,3680.00
2018-04-17T09:36:56.019Z,3800.00
2018-04-17T09:37:56.001Z,3912.00
2018-04-17T09:38:55.955Z,3988.00
2018-04-17T09:39:55.889Z,4116.00
2018-04-17T09:40:55.840Z,4300.00
2018-04-17T09:41:55.795Z,4508.00
2018-04-17T09:42:55.751Z,4688.00
2018-04-17T09:43:55.706Z,4904.00
2018-04-17T09:44:55.688Z,5184.00
2018-04-17T09:45:55.621Z,5416.00
2018-04-17T09:46:55.574Z,5564.00
2018-04-17T09:47:55.531Z,5728.00
2018-04-17T09:48:55.489Z,5892.00
2018-04-17T09:49:55.508Z,5944.00
2018-04-17T09:50:55.400Z,5984.00
2018-04-17T09:51:55.355Z,6124.00
2018-04-17T09:52:55.316Z,6408.00
2018-04-17T09:53:55.272Z,6672.00
2018-04-17T09:54:55.247Z,6920.00
2018-04-17T09:55:55.184Z,7100.00
2018-04-17T09:56:55.139Z,7076.00
2018-04-17T09:57:55.095Z,7132.00
2018-04-17T09:58:55.051Z,7060.00
2018-04-17T09:59:55.031Z,6924.00
2018-04-17T10:00:54.969Z,6940.00
2018-04-17T10:01:54.924Z,6904.00
2018-04-17T10:02:54.879Z,6916.00
2018-04-17T10:03:54.838Z,6984.00
2018-04-17T10:04:54.818Z,7088.00
2018-04-17T10:05:54.750Z,7140.00
2018-04-17T10:06:54.708Z,7100.00
2018-04-17T10:07:54.672Z,7108.00
2018-04-17T10:08:54.686Z,6984.00
2018-04-17T10:09:54.598Z,6852.00
2018-04-17T10:10:54.531Z,6680.00
2018-04-17T10:11:54.489Z,6464.00
2018-04-17T10:12:54.465Z,6284.00
2018-04-17T10:13:54.403Z,6244.00
2018-04-17T10:14:54.385Z,6324.00
2018-04-17T10:15:54.318Z,6324.00
2018-04-17T10:16:54.272Z,6244.00
2018-04-17T10:17:54.230Z,6124.00
2018-04-17T10:18:54.188Z,5936.00
2018-04-17T10:19:54.170Z,5768.00
2018-04-17T10:20:54.103Z,5628.00
2018-04-17T10:21:54.058Z,5512.00
2018-04-17T10:22:54.016Z,5360.00
2018-04-17T10:23:53.972Z,5208.00
2018-04-17T10:24:53.955Z,5164.00
2018-04-17T10:25:53.888Z,5176.00
2018-04-17T10:26:53.845Z,5248.00
2018-04-17T10:27:53.806Z,5240.00
2018-04-17T10:28:53.763Z,5084.00
2018-04-17T10:29:53.783Z,4944.00
2018-04-17T10:30:53.675Z,4936.00
2018-04-17T10:31:53.631Z,4932.00
2018-04-17T10:32:53.584Z,4928.00
2018-04-17T10:33:53.545Z,4944.00
2018-04-17T10:34:53.526Z,4940.00
2018-04-17T10:35:53.458Z,4920.00
2018-04-17T10:36:53.411Z,4872.00
2018-04-17T10:37:53.375Z,4700.00
2018-04-17T10:38:53.325Z,4620.00
2018-04-17T10:39:53.306Z,4616.00
2018-04-17T10:40:53.244Z,4664.00
2018-04-17T10:41:53.201Z,4840.00
2018-04-17T10:42:53.157Z,4832.00
2018-04-17T10:43:53.115Z,4792.00
2018-04-17T10:44:53.096Z,4824.00
2018-04-17T10:45:53.027Z,4868.00
2018-04-17T10:46:52.982Z,4772.00
2018-04-17T10:47:52.940Z,4728.00
2018-04-17T10:48:52.900Z,4592.00
2018-04-17T10:49:52.882Z,4396.00
2018-04-17T10:50:52.809Z,4352.00
2018-04-17T10:51:52.770Z,4392.00
2018-04-17T10:52:52.732Z,4496.00
2018-04-17T10:53:52.701Z,4332.00
2018-04-17T10:54:52.659Z,4408.00
2018-04-17T10:55:52.594Z,4352.00
2018-04-17T10:56:52.553Z,4436.00
2018-04-17T10:57:52.512Z,4536.00
2018-04-17T10:58:52.468Z,4564.00
2018-04-17T10:59:52.444Z,4524.00
2018-04-17T11:00:52.382Z,4360.00
2018-04-17T11:01:52.335Z,4352.00
2018-04-17T11:02:52.291Z,4400.00
2018-04-17T11:03:52.248Z,4332.00
2018-04-17T11:04:52.252Z,4336.00
2018-04-17T11:05:52.160Z,4392.00
2018-04-17T11:06:52.118Z,4440.00
2018-04-17T11:07:52.081Z,4508.00
2018-04-17T11:08:52.030Z,4324.00
2018-04-17T11:09:52.015Z,4032.00
2018-04-17T11:10:51.947Z,3964.00
2018-04-17T11:11:51.902Z,4080.00
2018-04-17T11:12:51.864Z,4108.00
2018-04-17T11:13:51.817Z,4196.00
2018-04-17T11:14:51.797Z,4144.00
2018-04-17T11:15:51.727Z,4160.00
2018-04-17T11:16:51.688Z,4140.00
2018-04-17T11:17:51.641Z,4240.00
2018-04-17T11:18:51.600Z,4308.00
2018-04-17T11:19:51.581Z,4512.00
2018-04-17T11:20:51.516Z,4688.00
2018-04-17T11:21:51.472Z,4776.00
2018-04-17T11:22:51.425Z,4808.00
2018-04-17T11:23:51.382Z,4876.00
2018-04-17T11:24:51.363Z,4852.00
2018-04-17T11:25:51.299Z,4892.00
2018-04-17T11:26:51.252Z,4960.00
2018-04-17T11:27:51.211Z,4924.00
2018-04-17T11:28:51.171Z,4832.00
2018-04-17T11:29:51.147Z,4880.00
2018-04-17T11:30:51.081Z,5016.00
2018-04-17T11:31:51.038Z,5164.00
2018-04-17T11:32:50.995Z,5240.00
2018-04-17T11:33:50.951Z,5280.00
2018-04-17T11:34:50.930Z,5212.00
2018-04-17T11:35:50.863Z,5256.00
2018-04-17T11:36:50.826Z,5448.00
2018-04-17T11:37:50.780Z,5596.00
2018-04-17T11:38:50.735Z,5848.00
2018-04-17T11:39:50.720Z,5948.00
2018-04-17T11:40:50.650Z,6004.00
2018-04-17T11:41:50.609Z,6032.00
2018-04-17T11:42:50.567Z,6060.00
2018-04-17T11:43:50.522Z,6092.00
2018-04-17T11:44:50.500Z,6116.00
2018-04-17T11:45:50.435Z,6148.00
2018-04-17T11:46:50.398Z,6116.00
2018-04-17T11:47:50.348Z,5984.00
2018-04-17T11:48:50.308Z,5968.00
2018-04-17T11:49:50.287Z,5912.00
2018-04-17T11:50:50.221Z,5800.00
2018-04-17T11:51:50.179Z,5712.00
2018-04-17T11:52:50.136Z,5580.00
2018-04-17T11:53:50.102Z,5416.00
2018-04-17T11:54:50.076Z,5244.00
2018-04-17T11:55:50.012Z,5184.00
2018-04-17T11:56:49.965Z,5064.00
2018-04-17T11:57:49.926Z,4980.00
2018-04-17T11:58:49.880Z,4888.00
2018-04-17T11:59:49.862Z,4836.00
2018-04-17T12:00:49.793Z,4764.00
2018-04-17T12:01:49.750Z,4696.00
2018-04-17T12:02:49.709Z,4564.00
2018-04-17T12:03:49.664Z,4468.00
2018-04-17T12:04:49.648Z,4352.00
2018-04-17T12:05:49.580Z,4312.00
2018-04-17T12:06:49.535Z,4260.00
2018-04-17T12:07:49.498Z,4164.00
2018-04-17T12:08:49.450Z,4084.00
2018-04-17T12:09:49.432Z,4008.00
2018-04-17T12:10:49.360Z,3952.00
2018-04-17T12:11:49.324Z,3904.00
2018-04-17T12:12:49.279Z,3844.00
2018-04-17T12:13:49.244Z,3820.00
2018-04-17T12:14:49.217Z,3728.00
2018-04-17T12:15:49.154Z,3624.00
2018-04-17T12:16:49.111Z,3564.00
2018-04-17T12:17:49.067Z,3524.00
2018-04-17T12:18:49.023Z,3504.00
2018-04-17T12:19:49.001Z,3520.00
2018-04-17T12:20:48.939Z,3496.00
2018-04-17T12:21:48.895Z,3528.00
2018-04-17T12:22:48.851Z,3500.00
2018-04-17T12:23:48.809Z,3456.00
2018-04-17T12:24:48.789Z,3444.00
2018-04-17T12:25:48.766Z,3464.00
2018-04-17T12:26:48.679Z,3456.00
2018-04-17T12:27:48.635Z,3432.00
2018-04-17T12:28:48.593Z,3440.00
2018-04-17T12:29:48.576Z,3448.00